sensor_id;sensor_type;location;lat;lon;timestamp;temperature;humidity
31675;DHT22;18276;45.520;11.018;2023-07-20T00:00:59;23.80;99.90
31675;DHT22;18276;45.520;11.018;2023-07-20T00:03:26;23.80;99.90
31675;DHT22;18276;45.520;11.018;2023-07-20T00:05:53;23.80;99.90
31675;DHT22;18276;45.520;11.018;2023-07-20T00:08:20;23.90;99.90
31675;DHT22;18276;45.520;11.018;2023-07-20T00:10:46;24.00;99.90
31675;DHT22;18276;45.520;11.018;2023-07-20T00:13:13;24.00;99.90
31675;DHT22;18276;45.520;11.018;2023-07-20T00:15:42;24.10;99.90
31675;DHT22;18276;45.520;11.018;2023-07-20T00:18:09;24.10;99.90
31675;DHT22;18276;45.520;11.018;2023-07-20T00:20:36;24.10;99.90
31675;DHT22;18276;45.520;11.018;2023-07-20T00:23:03;24.20;99.90
31675;DHT22;18276;45.520;11.018;2023-07-20T00:25:30;24.20;99.90
31675;DHT22;18276;45.520;11.018;2023-07-20T00:27:57;24.00;99.90
31675;DHT22;18276;45.520;11.018;2023-07-20T00:30:24;23.90;99.90
31675;DHT22;18276;45.520;11.018;2023-07-20T00:32:50;23.80;99.90
31675;DHT22;18276;45.520;11.018;2023-07-20T00:35:17;23.70;99.90
31675;DHT22;18276;45.520;11.018;2023-07-20T00:37:44;23.70;99.90
31675;DHT22;18276;45.520;11.018;2023-07-20T00:40:11;23.80;99.90
31675;DHT22;18276;45.520;11.018;2023-07-20T00:42:38;23.70;99.90
31675;DHT22;18276;45.520;11.018;2023-07-20T00:45:06;23.60;99.90
31675;DHT22;18276;45.520;11.018;2023-07-20T00:47:33;23.50;99.90
31675;DHT22;18276;45.520;11.018;2023-07-20T00:50:00;23.50;99.90
31675;DHT22;18276;45.520;11.018;2023-07-20T00:52:31;23.40;99.90
31675;DHT22;18276;45.520;11.018;2023-07-20T00:54:58;23.40;99.90
31675;DHT22;18276;45.520;11.018;2023-07-20T00:57:25;23.40;99.90
31675;DHT22;18276;45.520;11.018;2023-07-20T00:59:52;23.30;99.90
31675;DHT22;18276;45.520;11.018;2023-07-20T01:02:20;23.20;99.90
31675;DHT22;18276;45.520;11.018;2023-07-20T01:04:47;23.20;99.90
31675;DHT22;18276;45.520;11.018;2023-07-20T01:07:16;23.20;99.90
31675;DHT22;18276;45.520;11.018;2023-07-20T01:09:47;23.30;99.90
31675;DHT22;18276;45.520;11.018;2023-07-20T01:12:20;23.40;99.90
31675;DHT22;18276;45.520;11.018;2023-07-20T01:14:49;23.40;99.90
31675;DHT22;18276;45.520;11.018;2023-07-20T01:17:16;23.40;99.90
31675;DHT22;18276;45.520;11.018;2023-07-20T01:19:44;23.50;99.90
31675;DHT22;18276;45.520;11.018;2023-07-20T01:32:42;23.70;99.90
31675;DHT22;18276;45.520;11.018;2023-07-20T01:35:10;23.80;99.90
31675;DHT22;18276;45.520;11.018;2023-07-20T01:37:42;23.80;99.90
31675;DHT22;18276;45.520;11.018;2023-07-20T01:40:10;23.80;99.90
31675;DHT22;18276;45.520;11.018;2023-07-20T01:42:37;23.80;99.90
31675;DHT22;18276;45.520;11.018;2023-07-20T01:45:04;23.80;99.90
31675;DHT22;18276;45.520;11.018;2023-07-20T01:47:31;23.80;99.90
31675;DHT22;18276;45.520;11.018;2023-07-20T01:49:58;23.70;99.90
31675;DHT22;18276;45.520;11.018;2023-07-20T01:52:25;23.70;99.90
31675;DHT22;18276;45.520;11.018;2023-07-20T01:54:52;23.70;99.90
31675;DHT22;18276;45.520;11.018;2023-07-20T01:57:19;23.80;99.90
31675;DHT22;18276;45.520;11.018;2023-07-20T01:59:47;23.80;99.90
31675;DHT22;18276;45.520;11.018;2023-07-20T02:02:14;23.80;99.90
31675;DHT22;18276;45.520;11.018;2023-07-20T02:04:41;23.80;99.90
31675;DHT22;18276;45.520;11.018;2023-07-20T02:07:07;23.70;99.90
31675;DHT22;18276;45.520;11.018;2023-07-20T02:09:34;23.80;99.90
31675;DHT22;18276;45.520;11.018;2023-07-20T02:12:01;23.80;99.90
31675;DHT22;18276;45.520;11.018;2023-07-20T02:14:28;23.80;99.90
31675;DHT22;18276;45.520;11.018;2023-07-20T02:16:55;23.70;99.90
31675;DHT22;18276;45.520;11.018;2023-07-20T02:19:28;23.70;99.90
31675;DHT22;18276;45.520;11.018;2023-07-20T02:21:55;23.70;99.90
31675;DHT22;18276;45.520;11.018;2023-07-20T02:24:21;23.70;99.90
31675;DHT22;18276;45.520;11.018;2023-07-20T02:26:48;23.70;99.90
31675;DHT22;18276;45.520;11.018;2023-07-20T02:29:15;23.70;99.90
31675;DHT22;18276;45.520;11.018;2023-07-20T02:31:42;23.70;99.90
31675;DHT22;18276;45.520;11.018;2023-07-20T02:34:10;23.60;99.90
31675;DHT22;18276;45.520;11.018;2023-07-20T02:36:37;23.60;99.90
31675;DHT22;18276;45.520;11.018;2023-07-20T02:39:04;23.50;99.90
31675;DHT22;18276;45.520;11.018;2023-07-20T02:41:32;23.50;99.90
31675;DHT22;18276;45.520;11.018;2023-07-20T02:43:59;23.40;99.90
31675;DHT22;18276;45.520;11.018;2023-07-20T02:46:26;23.40;99.90
31675;DHT22;18276;45.520;11.018;2023-07-20T02:48:53;23.30;99.90
31675;DHT22;18276;45.520;11.018;2023-07-20T02:51:20;23.20;99.90
31675;DHT22;18276;45.520;11.018;2023-07-20T02:53:47;23.30;99.90
31675;DHT22;18276;45.520;11.018;2023-07-20T02:56:14;23.20;99.90
31675;DHT22;18276;45.520;11.018;2023-07-20T02:58:42;23.20;99.90
31675;DHT22;18276;45.520;11.018;2023-07-20T03:01:15;23.20;99.90
31675;DHT22;18276;45.520;11.018;2023-07-20T03:03:42;23.10;99.90
31675;DHT22;18276;45.520;11.018;2023-07-20T03:06:16;23.10;99.90
31675;DHT22;18276;45.520;11.018;2023-07-20T03:08:43;23.00;99.90
31675;DHT22;18276;45.520;11.018;2023-07-20T03:11:14;23.00;99.90
31675;DHT22;18276;45.520;11.018;2023-07-20T03:13:42;23.00;99.90
31675;DHT22;18276;45.520;11.018;2023-07-20T03:16:13;23.00;99.90
31675;DHT22;18276;45.520;11.018;2023-07-20T03:18:42;22.90;99.90
31675;DHT22;18276;45.520;11.018;2023-07-20T03:21:09;22.90;99.90
31675;DHT22;18276;45.520;11.018;2023-07-20T03:23:40;22.80;99.90
31675;DHT22;18276;45.520;11.018;2023-07-20T03:26:07;22.80;99.90
31675;DHT22;18276;45.520;11.018;2023-07-20T03:28:37;22.80;99.90
31675;DHT22;18276;45.520;11.018;2023-07-20T03:31:05;22.70;99.90
31675;DHT22;18276;45.520;11.018;2023-07-20T03:33:35;22.70;99.90
31675;DHT22;18276;45.520;11.018;2023-07-20T03:36:03;22.60;99.90
31675;DHT22;18276;45.520;11.018;2023-07-20T03:38:30;22.60;99.90
31675;DHT22;18276;45.520;11.018;2023-07-20T03:40:58;22.60;99.90
31675;DHT22;18276;45.520;11.018;2023-07-20T03:43:25;22.60;99.90
31675;DHT22;18276;45.520;11.018;2023-07-20T03:45:53;22.60;99.90
31675;DHT22;18276;45.520;11.018;2023-07-20T03:48:21;22.50;99.90
31675;DHT22;18276;45.520;11.018;2023-07-20T03:50:49;22.50;99.90
31675;DHT22;18276;45.520;11.018;2023-07-20T03:53:16;22.50;99.90
31675;DHT22;18276;45.520;11.018;2023-07-20T03:55:44;22.40;99.90
31675;DHT22;18276;45.520;11.018;2023-07-20T03:58:13;22.40;99.90
31675;DHT22;18276;45.520;11.018;2023-07-20T04:00:44;22.40;99.90
31675;DHT22;18276;45.520;11.018;2023-07-20T04:03:11;22.40;99.90
31675;DHT22;18276;45.520;11.018;2023-07-20T04:05:38;22.40;99.90
31675;DHT22;18276;45.520;11.018;2023-07-20T04:08:06;22.40;99.90
31675;DHT22;18276;45.520;11.018;2023-07-20T04:10:33;22.50;99.90
31675;DHT22;18276;45.520;11.018;2023-07-20T04:13:00;22.50;99.90
31675;DHT22;18276;45.520;11.018;2023-07-20T04:15:27;22.50;99.90
31675;DHT22;18276;45.520;11.018;2023-07-20T04:17:54;22.50;99.90
31675;DHT22;18276;45.520;11.018;2023-07-20T04:20:25;22.50;99.90
31675;DHT22;18276;45.520;11.018;2023-07-20T04:22:52;22.50;99.90
31675;DHT22;18276;45.520;11.018;2023-07-20T04:25:21;22.50;99.90
31675;DHT22;18276;45.520;11.018;2023-07-20T04:27:48;22.50;99.90
31675;DHT22;18276;45.520;11.018;2023-07-20T04:30:16;22.50;99.90
31675;DHT22;18276;45.520;11.018;2023-07-20T04:32:44;22.50;99.90
31675;DHT22;18276;45.520;11.018;2023-07-20T04:35:16;22.60;99.90
31675;DHT22;18276;45.520;11.018;2023-07-20T04:37:44;22.60;99.90
31675;DHT22;18276;45.520;11.018;2023-07-20T04:40:16;22.60;99.90
31675;DHT22;18276;45.520;11.018;2023-07-20T04:42:43;22.60;99.90
31675;DHT22;18276;45.520;11.018;2023-07-20T04:45:10;22.60;99.90
31675;DHT22;18276;45.520;11.018;2023-07-20T04:47:37;22.70;99.90
31675;DHT22;18276;45.520;11.018;2023-07-20T04:50:05;22.80;99.90
31675;DHT22;18276;45.520;11.018;2023-07-20T04:52:32;22.90;99.90
31675;DHT22;18276;45.520;11.018;2023-07-20T04:55:10;23.00;99.90
31675;DHT22;18276;45.520;11.018;2023-07-20T04:57:37;23.10;99.90
31675;DHT22;18276;45.520;11.018;2023-07-20T05:00:05;23.20;99.90
31675;DHT22;18276;45.520;11.018;2023-07-20T05:02:33;23.30;99.90
31675;DHT22;18276;45.520;11.018;2023-07-20T05:05:00;23.50;99.90
31675;DHT22;18276;45.520;11.018;2023-07-20T05:07:28;23.60;99.70
31675;DHT22;18276;45.520;11.018;2023-07-20T05:09:55;23.70;99.20
31675;DHT22;18276;45.520;11.018;2023-07-20T05:12:22;23.80;98.60
31675;DHT22;18276;45.520;11.018;2023-07-20T05:14:49;24.00;98.10
31675;DHT22;18276;45.520;11.018;2023-07-20T05:17:16;24.10;97.70
31675;DHT22;18276;45.520;11.018;2023-07-20T05:19:43;24.20;97.20
31675;DHT22;18276;45.520;11.018;2023-07-20T05:22:13;24.40;96.70
31675;DHT22;18276;45.520;11.018;2023-07-20T05:24:40;24.70;96.10
31675;DHT22;18276;45.520;11.018;2023-07-20T05:27:07;25.30;94.90
31675;DHT22;18276;45.520;11.018;2023-07-20T05:29:33;26.00;93.70
31675;DHT22;18276;45.520;11.018;2023-07-20T05:32:00;26.80;92.30
31675;DHT22;18276;45.520;11.018;2023-07-20T05:34:27;27.50;91.00
31675;DHT22;18276;45.520;11.018;2023-07-20T05:36:54;28.00;89.00
31675;DHT22;18276;45.520;11.018;2023-07-20T05:39:22;28.60;86.10
31675;DHT22;18276;45.520;11.018;2023-07-20T05:41:49;29.00;83.30
31675;DHT22;18276;45.520;11.018;2023-07-20T05:44:16;29.40;81.40
31675;DHT22;18276;45.520;11.018;2023-07-20T05:46:43;29.80;79.00
31675;DHT22;18276;45.520;11.018;2023-07-20T05:49:23;30.20;77.80
31675;DHT22;18276;45.520;11.018;2023-07-20T05:51:50;30.50;74.00
31675;DHT22;18276;45.520;11.018;2023-07-20T05:54:17;30.90;72.60
31675;DHT22;18276;45.520;11.018;2023-07-20T05:56:44;31.20;71.10
31675;DHT22;18276;45.520;11.018;2023-07-20T05:59:13;31.40;69.80
31675;DHT22;18276;45.520;11.018;2023-07-20T06:01:40;31.80;68.50
31675;DHT22;18276;45.520;11.018;2023-07-20T06:04:07;32.10;66.80
31675;DHT22;18276;45.520;11.018;2023-07-20T06:06:34;32.40;64.70
31675;DHT22;18276;45.520;11.018;2023-07-20T06:09:01;32.60;63.80
31675;DHT22;18276;45.520;11.018;2023-07-20T06:11:32;33.00;64.00
31675;DHT22;18276;45.520;11.018;2023-07-20T06:13:59;33.30;62.40
31675;DHT22;18276;45.520;11.018;2023-07-20T06:16:26;33.60;61.40
31675;DHT22;18276;45.520;11.018;2023-07-20T06:18:53;34.00;60.30
31675;DHT22;18276;45.520;11.018;2023-07-20T06:21:20;34.30;58.90
31675;DHT22;18276;45.520;11.018;2023-07-20T06:23:47;34.60;57.90
31675;DHT22;18276;45.520;11.018;2023-07-20T06:26:14;34.90;57.70
31675;DHT22;18276;45.520;11.018;2023-07-20T06:28:41;35.20;57.00
31675;DHT22;18276;45.520;11.018;2023-07-20T06:31:08;35.60;56.70
31675;DHT22;18276;45.520;11.018;2023-07-20T06:33:35;36.00;55.80
31675;DHT22;18276;45.520;11.018;2023-07-20T06:36:03;36.40;54.00
31675;DHT22;18276;45.520;11.018;2023-07-20T06:38:31;36.50;52.90
31675;DHT22;18276;45.520;11.018;2023-07-20T06:40:58;36.70;52.80
31675;DHT22;18276;45.520;11.018;2023-07-20T06:43:45;37.10;52.50
31675;DHT22;18276;45.520;11.018;2023-07-20T06:46:15;37.60;51.90
31675;DHT22;18276;45.520;11.018;2023-07-20T06:48:42;37.80;50.20
31675;DHT22;18276;45.520;11.018;2023-07-20T06:51:12;37.90;50.10
31675;DHT22;18276;45.520;11.018;2023-07-20T06:53:39;38.10;49.50
31675;DHT22;18276;45.520;11.018;2023-07-20T06:56:06;38.30;49.60
31675;DHT22;18276;45.520;11.018;2023-07-20T06:58:33;38.30;46.70
31675;DHT22;18276;45.520;11.018;2023-07-20T07:01:04;38.20;46.40
31675;DHT22;18276;45.520;11.018;2023-07-20T07:03:32;38.10;46.60
31675;DHT22;18276;45.520;11.018;2023-07-20T07:06:04;38.00;46.30
31675;DHT22;18276;45.520;11.018;2023-07-20T07:08:31;37.90;46.10
31675;DHT22;18276;45.520;11.018;2023-07-20T07:10:58;37.90;46.70
31675;DHT22;18276;45.520;11.018;2023-07-20T07:13:25;38.10;46.70
31675;DHT22;18276;45.520;11.018;2023-07-20T07:15:52;38.30;45.60
31675;DHT22;18276;45.520;11.018;2023-07-20T07:18:19;38.40;45.10
31675;DHT22;18276;45.520;11.018;2023-07-20T07:20:51;38.20;45.00
31675;DHT22;18276;45.520;11.018;2023-07-20T07:23:19;38.20;44.70
31675;DHT22;18276;45.520;11.018;2023-07-20T07:25:46;38.20;45.10
31675;DHT22;18276;45.520;11.018;2023-07-20T07:28:13;38.10;45.30
31675;DHT22;18276;45.520;11.018;2023-07-20T07:30:40;38.30;44.70
31675;DHT22;18276;45.520;11.018;2023-07-20T07:33:07;38.30;44.10
31675;DHT22;18276;45.520;11.018;2023-07-20T07:35:35;38.20;44.50
31675;DHT22;18276;45.520;11.018;2023-07-20T07:38:02;38.20;45.00
31675;DHT22;18276;45.520;11.018;2023-07-20T07:40:49;37.90;45.30
31675;DHT22;18276;45.520;11.018;2023-07-20T07:43:16;37.80;45.00
31675;DHT22;18276;45.520;11.018;2023-07-20T07:45:43;37.70;45.50
31675;DHT22;18276;45.520;11.018;2023-07-20T07:48:10;37.70;44.90
31675;DHT22;18276;45.520;11.018;2023-07-20T07:50:41;37.70;44.30
31675;DHT22;18276;45.520;11.018;2023-07-20T07:53:08;37.50;44.70
31675;DHT22;18276;45.520;11.018;2023-07-20T07:55:36;37.40;45.80
31675;DHT22;18276;45.520;11.018;2023-07-20T07:58:03;37.70;45.30
31675;DHT22;18276;45.520;11.018;2023-07-20T08:00:30;37.50;45.10
31675;DHT22;18276;45.520;11.018;2023-07-20T08:02:58;37.70;44.00
31675;DHT22;18276;45.520;11.018;2023-07-20T08:05:25;37.80;43.70
31675;DHT22;18276;45.520;11.018;2023-07-20T08:07:53;38.20;43.50
31675;DHT22;18276;45.520;11.018;2023-07-20T08:10:20;38.40;42.70
31675;DHT22;18276;45.520;11.018;2023-07-20T08:12:47;38.40;42.50
31675;DHT22;18276;45.520;11.018;2023-07-20T08:15:14;38.70;42.10
31675;DHT22;18276;45.520;11.018;2023-07-20T08:17:41;38.80;41.30
31675;DHT22;18276;45.520;11.018;2023-07-20T08:20:09;38.70;41.60
31675;DHT22;18276;45.520;11.018;2023-07-20T08:22:39;38.90;41.70
31675;DHT22;18276;45.520;11.018;2023-07-20T08:25:06;39.00;41.60
31675;DHT22;18276;45.520;11.018;2023-07-20T08:27:33;39.10;41.50
31675;DHT22;18276;45.520;11.018;2023-07-20T08:30:00;39.30;41.50
31675;DHT22;18276;45.520;11.018;2023-07-20T08:32:27;39.50;41.00
31675;DHT22;18276;45.520;11.018;2023-07-20T08:34:54;39.40;41.10
31675;DHT22;18276;45.520;11.018;2023-07-20T08:37:21;39.10;41.90
31675;DHT22;18276;45.520;11.018;2023-07-20T08:39:48;39.10;41.80
31675;DHT22;18276;45.520;11.018;2023-07-20T08:42:15;39.20;41.90
31675;DHT22;18276;45.520;11.018;2023-07-20T08:44:43;39.20;41.20
31675;DHT22;18276;45.520;11.018;2023-07-20T08:47:11;39.10;41.50
31675;DHT22;18276;45.520;11.018;2023-07-20T08:49:40;39.30;41.80
31675;DHT22;18276;45.520;11.018;2023-07-20T08:52:07;39.20;42.00
31675;DHT22;18276;45.520;11.018;2023-07-20T08:54:34;39.40;42.20
31675;DHT22;18276;45.520;11.018;2023-07-20T08:57:03;39.60;41.90
31675;DHT22;18276;45.520;11.018;2023-07-20T08:59:30;39.80;42.30
31675;DHT22;18276;45.520;11.018;2023-07-20T09:02:00;40.10;41.10
31675;DHT22;18276;45.520;11.018;2023-07-20T09:04:28;40.30;41.00
31675;DHT22;18276;45.520;11.018;2023-07-20T09:06:57;40.30;40.70
31675;DHT22;18276;45.520;11.018;2023-07-20T09:09:24;40.30;40.90
31675;DHT22;18276;45.520;11.018;2023-07-20T09:11:51;40.50;40.70
31675;DHT22;18276;45.520;11.018;2023-07-20T09:14:18;40.60;40.60
31675;DHT22;18276;45.520;11.018;2023-07-20T09:16:49;40.70;40.50
31675;DHT22;18276;45.520;11.018;2023-07-20T09:19:17;40.90;40.10
31675;DHT22;18276;45.520;11.018;2023-07-20T09:21:51;41.10;40.20
31675;DHT22;18276;45.520;11.018;2023-07-20T09:24:19;40.90;39.50
31675;DHT22;18276;45.520;11.018;2023-07-20T09:26:47;40.90;39.80
31675;DHT22;18276;45.520;11.018;2023-07-20T09:29:18;41.10;39.90
31675;DHT22;18276;45.520;11.018;2023-07-20T09:32:03;41.30;39.70
31675;DHT22;18276;45.520;11.018;2023-07-20T09:34:31;41.70;40.00
31675;DHT22;18276;45.520;11.018;2023-07-20T09:37:01;42.00;38.70
31675;DHT22;18276;45.520;11.018;2023-07-20T09:39:29;41.80;37.90
31675;DHT22;18276;45.520;11.018;2023-07-20T09:42:00;41.40;38.80
31675;DHT22;18276;45.520;11.018;2023-07-20T09:44:30;41.30;39.50
31675;DHT22;18276;45.520;11.018;2023-07-20T09:46:59;41.50;39.20
31675;DHT22;18276;45.520;11.018;2023-07-20T09:49:28;41.60;39.10
31675;DHT22;18276;45.520;11.018;2023-07-20T09:51:59;41.50;39.30
31675;DHT22;18276;45.520;11.018;2023-07-20T09:54:27;41.80;38.90
31675;DHT22;18276;45.520;11.018;2023-07-20T09:56:55;41.60;38.80
31675;DHT22;18276;45.520;11.018;2023-07-20T09:59:22;41.70;38.80
31675;DHT22;18276;45.520;11.018;2023-07-20T10:01:49;41.50;38.70
31675;DHT22;18276;45.520;11.018;2023-07-20T10:04:19;41.40;39.20
31675;DHT22;18276;45.520;11.018;2023-07-20T10:06:48;41.50;39.30
31675;DHT22;18276;45.520;11.018;2023-07-20T10:09:16;41.50;39.50
31675;DHT22;18276;45.520;11.018;2023-07-20T10:11:45;41.80;39.10
31675;DHT22;18276;45.520;11.018;2023-07-20T10:14:38;41.60;39.10
31675;DHT22;18276;45.520;11.018;2023-07-20T10:17:07;41.70;39.00
31675;DHT22;18276;45.520;11.018;2023-07-20T10:19:44;41.60;39.00
31675;DHT22;18276;45.520;11.018;2023-07-20T10:22:20;41.50;38.80
31675;DHT22;18276;45.520;11.018;2023-07-20T10:24:51;41.80;39.00
31675;DHT22;18276;45.520;11.018;2023-07-20T10:27:20;41.70;38.50
31675;DHT22;18276;45.520;11.018;2023-07-20T10:29:47;41.60;38.70
31675;DHT22;18276;45.520;11.018;2023-07-20T10:32:14;41.60;38.40
31675;DHT22;18276;45.520;11.018;2023-07-20T10:34:42;41.70;38.60
31675;DHT22;18276;45.520;11.018;2023-07-20T10:37:09;41.50;38.20
31675;DHT22;18276;45.520;11.018;2023-07-20T10:39:36;41.30;38.70
31675;DHT22;18276;45.520;11.018;2023-07-20T10:42:03;41.30;38.60
31675;DHT22;18276;45.520;11.018;2023-07-20T10:44:33;41.40;38.10
31675;DHT22;18276;45.520;11.018;2023-07-20T10:47:03;41.30;37.80
31675;DHT22;18276;45.520;11.018;2023-07-20T10:49:35;41.20;38.50
31675;DHT22;18276;45.520;11.018;2023-07-20T10:52:05;41.80;38.20
31675;DHT22;18276;45.520;11.018;2023-07-20T10:54:33;41.80;37.10
31675;DHT22;18276;45.520;11.018;2023-07-20T10:57:21;41.40;37.60
31675;DHT22;18276;45.520;11.018;2023-07-20T10:59:48;41.50;37.80
31675;DHT22;18276;45.520;11.018;2023-07-20T11:02:17;41.50;37.40
31675;DHT22;18276;45.520;11.018;2023-07-20T11:04:45;41.60;37.60
31675;DHT22;18276;45.520;11.018;2023-07-20T11:07:16;41.70;37.30
31675;DHT22;18276;45.520;11.018;2023-07-20T11:09:44;41.70;37.30
31675;DHT22;18276;45.520;11.018;2023-07-20T11:12:15;41.80;37.40
31675;DHT22;18276;45.520;11.018;2023-07-20T11:14:43;41.70;37.30
31675;DHT22;18276;45.520;11.018;2023-07-20T11:17:11;41.50;37.30
31675;DHT22;18276;45.520;11.018;2023-07-20T11:19:39;41.50;37.90
31675;DHT22;18276;45.520;11.018;2023-07-20T11:22:12;41.80;37.80
31675;DHT22;18276;45.520;11.018;2023-07-20T11:24:39;41.80;37.20
31675;DHT22;18276;45.520;11.018;2023-07-20T11:27:07;41.70;37.50
31675;DHT22;18276;45.520;11.018;2023-07-20T11:29:34;41.80;37.50
31675;DHT22;18276;45.520;11.018;2023-07-20T11:32:02;41.90;37.20
31675;DHT22;18276;45.520;11.018;2023-07-20T11:34:33;41.80;36.70
31675;DHT22;18276;45.520;11.018;2023-07-20T11:37:00;41.60;37.60
31675;DHT22;18276;45.520;11.018;2023-07-20T11:39:30;41.40;37.20
31675;DHT22;18276;45.520;11.018;2023-07-20T11:41:58;40.80;38.00
31675;DHT22;18276;45.520;11.018;2023-07-20T11:44:28;40.30;38.90
31675;DHT22;18276;45.520;11.018;2023-07-20T11:49:41;39.50;40.00
31675;DHT22;18276;45.520;11.018;2023-07-20T11:52:10;39.00;40.90
31675;DHT22;18276;45.520;11.018;2023-07-20T11:54:38;38.60;41.60
31675;DHT22;18276;45.520;11.018;2023-07-20T11:57:06;38.20;42.20
31675;DHT22;18276;45.520;11.018;2023-07-20T11:59:33;37.80;43.00
31675;DHT22;18276;45.520;11.018;2023-07-20T12:02:03;37.50;43.40
31675;DHT22;18276;45.520;11.018;2023-07-20T12:04:31;37.30;43.60
31675;DHT22;18276;45.520;11.018;2023-07-20T12:06:59;37.40;43.80
31675;DHT22;18276;45.520;11.018;2023-07-20T12:09:26;37.30;43.70
31675;DHT22;18276;45.520;11.018;2023-07-20T12:12:08;37.10;44.50
31675;DHT22;18276;45.520;11.018;2023-07-20T12:14:36;36.80;44.70
31675;DHT22;18276;45.520;11.018;2023-07-20T12:17:02;36.70;45.20
31675;DHT22;18276;45.520;11.018;2023-07-20T12:19:30;36.40;45.20
31675;DHT22;18276;45.520;11.018;2023-07-20T12:21:57;36.30;45.70
31675;DHT22;18276;45.520;11.018;2023-07-20T12:24:25;36.30;45.80
31675;DHT22;18276;45.520;11.018;2023-07-20T12:26:55;36.10;46.20
31675;DHT22;18276;45.520;11.018;2023-07-20T12:29:23;36.00;46.50
31675;DHT22;18276;45.520;11.018;2023-07-20T12:31:50;35.90;46.60
31675;DHT22;18276;45.520;11.018;2023-07-20T12:34:17;35.90;46.80
31675;DHT22;18276;45.520;11.018;2023-07-20T12:39:32;35.80;46.90
31675;DHT22;18276;45.520;11.018;2023-07-20T12:41:58;35.60;47.40
31675;DHT22;18276;45.520;11.018;2023-07-20T12:44:24;35.60;48.30
31675;DHT22;18276;45.520;11.018;2023-07-20T12:46:50;35.50;48.00
31675;DHT22;18276;45.520;11.018;2023-07-20T12:49:16;35.60;48.00
31675;DHT22;18276;45.520;11.018;2023-07-20T12:51:42;35.70;47.90
31675;DHT22;18276;45.520;11.018;2023-07-20T12:54:08;35.50;48.30
31675;DHT22;18276;45.520;11.018;2023-07-20T12:56:33;35.40;48.10
31675;DHT22;18276;45.520;11.018;2023-07-20T12:58:59;35.40;48.70
31675;DHT22;18276;45.520;11.018;2023-07-20T13:01:25;35.20;48.60
31675;DHT22;18276;45.520;11.018;2023-07-20T13:03:51;35.20;48.90
31675;DHT22;18276;45.520;11.018;2023-07-20T13:06:16;35.00;48.80
31675;DHT22;18276;45.520;11.018;2023-07-20T13:08:42;34.90;49.40
31675;DHT22;18276;45.520;11.018;2023-07-20T13:11:08;34.60;49.70
31675;DHT22;18276;45.520;11.018;2023-07-20T13:13:34;34.60;49.80
31675;DHT22;18276;45.520;11.018;2023-07-20T13:15:59;34.50;49.70
31675;DHT22;18276;45.520;11.018;2023-07-20T13:18:25;34.50;50.10
31675;DHT22;18276;45.520;11.018;2023-07-20T13:20:51;34.40;50.30
31675;DHT22;18276;45.520;11.018;2023-07-20T13:23:17;34.30;50.60
31675;DHT22;18276;45.520;11.018;2023-07-20T13:25:42;34.30;51.10
31675;DHT22;18276;45.520;11.018;2023-07-20T13:28:08;34.20;50.90
31675;DHT22;18276;45.520;11.018;2023-07-20T13:30:34;34.30;50.30
31675;DHT22;18276;45.520;11.018;2023-07-20T13:33:00;34.20;50.10
31675;DHT22;18276;45.520;11.018;2023-07-20T13:35:26;34.10;50.60
31675;DHT22;18276;45.520;11.018;2023-07-20T13:37:52;34.10;50.90
31675;DHT22;18276;45.520;11.018;2023-07-20T13:40:17;34.10;50.70
31675;DHT22;18276;45.520;11.018;2023-07-20T13:42:46;34.10;50.80
31675;DHT22;18276;45.520;11.018;2023-07-20T13:45:13;34.10;50.80
31675;DHT22;18276;45.520;11.018;2023-07-20T13:47:41;34.20;51.00
31675;DHT22;18276;45.520;11.018;2023-07-20T13:50:08;34.20;51.10
31675;DHT22;18276;45.520;11.018;2023-07-20T13:52:52;34.20;51.20
31675;DHT22;18276;45.520;11.018;2023-07-20T13:55:39;34.00;51.40
31675;DHT22;18276;45.520;11.018;2023-07-20T13:58:09;33.70;51.70
31675;DHT22;18276;45.520;11.018;2023-07-20T14:00:38;33.70;51.90
31675;DHT22;18276;45.520;11.018;2023-07-20T14:03:05;33.70;51.60
31675;DHT22;18276;45.520;11.018;2023-07-20T14:05:35;33.60;52.00
31675;DHT22;18276;45.520;11.018;2023-07-20T14:08:05;33.60;52.40
31675;DHT22;18276;45.520;11.018;2023-07-20T14:10:33;33.40;52.50
31675;DHT22;18276;45.520;11.018;2023-07-20T14:13:00;33.40;52.50
31675;DHT22;18276;45.520;11.018;2023-07-20T14:15:28;33.40;52.90
31675;DHT22;18276;45.520;11.018;2023-07-20T14:17:55;33.40;52.30
31675;DHT22;18276;45.520;11.018;2023-07-20T14:20:22;33.60;52.30
31675;DHT22;18276;45.520;11.018;2023-07-20T14:22:48;33.60;52.10
31675;DHT22;18276;45.520;11.018;2023-07-20T14:25:17;33.60;51.80
31675;DHT22;18276;45.520;11.018;2023-07-20T14:27:45;33.50;51.90
31675;DHT22;18276;45.520;11.018;2023-07-20T14:30:12;33.40;52.30
31675;DHT22;18276;45.520;11.018;2023-07-20T14:32:40;33.40;52.60
31675;DHT22;18276;45.520;11.018;2023-07-20T14:35:07;33.30;52.90
31675;DHT22;18276;45.520;11.018;2023-07-20T14:37:36;33.20;52.90
31675;DHT22;18276;45.520;11.018;2023-07-20T14:40:03;33.40;52.80
31675;DHT22;18276;45.520;11.018;2023-07-20T14:42:32;33.40;52.40
31675;DHT22;18276;45.520;11.018;2023-07-20T14:44:59;33.50;52.10
31675;DHT22;18276;45.520;11.018;2023-07-20T14:47:26;33.50;52.20
31675;DHT22;18276;45.520;11.018;2023-07-20T14:49:53;33.40;52.00
31675;DHT22;18276;45.520;11.018;2023-07-20T14:52:20;33.40;52.10
31675;DHT22;18276;45.520;11.018;2023-07-20T14:54:47;33.40;51.80
31675;DHT22;18276;45.520;11.018;2023-07-20T14:57:14;33.50;51.90
31675;DHT22;18276;45.520;11.018;2023-07-20T14:59:42;33.60;52.00
31675;DHT22;18276;45.520;11.018;2023-07-20T15:02:09;33.60;51.80
31675;DHT22;18276;45.520;11.018;2023-07-20T15:04:36;33.50;51.60
31675;DHT22;18276;45.520;11.018;2023-07-20T15:07:03;33.50;51.90
31675;DHT22;18276;45.520;11.018;2023-07-20T15:09:30;33.60;51.90
31675;DHT22;18276;45.520;11.018;2023-07-20T15:11:58;33.60;51.70
31675;DHT22;18276;45.520;11.018;2023-07-20T15:14:24;33.60;51.70
31675;DHT22;18276;45.520;11.018;2023-07-20T15:16:51;33.50;51.90
31675;DHT22;18276;45.520;11.018;2023-07-20T15:19:18;33.50;52.40
31675;DHT22;18276;45.520;11.018;2023-07-20T15:21:45;33.50;52.40
31675;DHT22;18276;45.520;11.018;2023-07-20T15:24:12;33.40;52.40
31675;DHT22;18276;45.520;11.018;2023-07-20T15:26:39;33.30;52.80
31675;DHT22;18276;45.520;11.018;2023-07-20T15:29:07;33.30;52.70
31675;DHT22;18276;45.520;11.018;2023-07-20T15:31:55;33.10;53.60
31675;DHT22;18276;45.520;11.018;2023-07-20T15:34:24;32.90;53.30
31675;DHT22;18276;45.520;11.018;2023-07-20T15:36:51;33.00;53.50